sensor_id;sensor_type;location;lat;lon;timestamp;pressure;altitude;pressure_sealevel;temperature;humidity
73105;BME280;61296;50.526;30.792;2023-05-29T00:02:36;99783.31;;;11.68;46.40
73105;BME280;61296;50.526;30.792;2023-05-29T00:17:57;99780.16;;;11.36;47.63
73105;BME280;61296;50.526;30.792;2023-05-29T00:33:16;99769.97;;;11.06;48.31
73105;BME280;61296;50.526;30.792;2023-05-29T00:48:37;99750.97;;;10.71;48.49
73105;BME280;61296;50.526;30.792;2023-05-29T01:03:57;99792.09;;;10.87;49.50
73105;BME280;61296;50.526;30.792;2023-05-29T01:34:57;99790.19;;;10.41;50.58
73105;BME280;61296;50.526;30.792;2023-05-29T01:50:17;99797.47;;;10.30;50.53
73105;BME280;61296;50.526;30.792;2023-05-29T02:05:37;99841.19;;;10.62;50.17
73105;BME280;61296;50.526;30.792;2023-05-29T02:49:58;99889.25;;;12.04;47.97
73105;BME280;61296;50.526;30.792;2023-05-29T03:05:20;99838.69;;;11.89;47.82
73105;BME280;61296;50.526;30.792;2023-05-29T03:20:39;99861.91;;;12.69;47.02
73105;BME280;61296;50.526;30.792;2023-05-29T03:35:59;99809.16;;;12.75;45.77
73105;BME280;61296;50.526;30.792;2023-05-29T03:51:19;99814.31;;;13.42;45.48
73105;BME280;61296;50.526;30.792;2023-05-29T04:06:38;99807.44;;;14.12;44.05
73105;BME280;61296;50.526;30.792;2023-05-29T04:21:58;99898.84;;;15.19;42.88
73105;BME280;61296;50.526;30.792;2023-05-29T04:37:17;99850.91;;;15.43;42.12
73105;BME280;61296;50.526;30.792;2023-05-29T04:52:37;99922.09;;;15.89;40.39
73105;BME280;61296;50.526;30.792;2023-05-29T05:07:58;99857.09;;;15.90;40.25
73105;BME280;61296;50.526;30.792;2023-05-29T05:23:18;99859.03;;;16.63;38.38
73105;BME280;61296;50.526;30.792;2023-05-29T05:38:38;99857.63;;;16.92;39.82
73105;BME280;61296;50.526;30.792;2023-05-29T05:53:58;99843.06;;;16.78;38.92
73105;BME280;61296;50.526;30.792;2023-05-29T06:09:20;99847.66;;;17.36;38.65
73105;BME280;61296;50.526;30.792;2023-05-29T06:24:43;99944.53;;;17.82;37.56
73105;BME280;61296;50.526;30.792;2023-05-29T06:40:03;99852.53;;;18.27;37.19
73105;BME280;61296;50.526;30.792;2023-05-29T06:55:24;99844.25;;;18.74;33.09
73105;BME280;61296;50.526;30.792;2023-05-29T07:10:44;99895.47;;;19.74;32.18
73105;BME280;61296;50.526;30.792;2023-05-29T07:26:07;99891.50;;;19.51;32.06
73105;BME280;61296;50.526;30.792;2023-05-29T07:41:26;99857.06;;;19.38;30.56
73105;BME280;61296;50.526;30.792;2023-05-29T07:56:47;99883.44;;;19.33;29.08
73105;BME280;61296;50.526;30.792;2023-05-29T08:12:07;99922.28;;;19.68;30.80
73105;BME280;61296;50.526;30.792;2023-05-29T08:27:27;99828.44;;;19.57;29.67
73105;BME280;61296;50.526;30.792;2023-05-29T08:43:14;99860.41;;;20.65;27.56
73105;BME280;61296;50.526;30.792;2023-05-29T08:58:37;99831.38;;;19.70;28.65
73105;BME280;61296;50.526;30.792;2023-05-29T09:13:56;99756.78;;;18.91;30.15
73105;BME280;61296;50.526;30.792;2023-05-29T09:29:17;99806.38;;;19.23;30.23
73105;BME280;61296;50.526;30.792;2023-05-29T09:44:36;99800.66;;;19.50;29.61
73105;BME280;61296;50.526;30.792;2023-05-29T09:59:56;99750.69;;;19.40;31.36
73105;BME280;61296;50.526;30.792;2023-05-29T10:15:16;99714.06;;;19.38;29.58
73105;BME280;61296;50.526;30.792;2023-05-29T10:30:45;99766.34;;;19.89;29.99
73105;BME280;61296;50.526;30.792;2023-05-29T10:46:05;99698.34;;;19.83;29.49
73105;BME280;61296;50.526;30.792;2023-05-29T11:01:24;99717.78;;;19.87;30.55
73105;BME280;61296;50.526;30.792;2023-05-29T11:16:46;99708.97;;;19.88;30.42
73105;BME280;61296;50.526;30.792;2023-05-29T11:32:06;99685.69;;;20.28;30.09
73105;BME280;61296;50.526;30.792;2023-05-29T11:47:29;99708.13;;;20.24;29.94
73105;BME280;61296;50.526;30.792;2023-05-29T12:02:50;99656.63;;;20.09;29.75
73105;BME280;61296;50.526;30.792;2023-05-29T12:18:10;99663.09;;;20.55;27.57
73105;BME280;61296;50.526;30.792;2023-05-29T12:33:32;99697.13;;;20.95;28.28
73105;BME280;61296;50.526;30.792;2023-05-29T12:48:55;99686.47;;;20.90;28.69
73105;BME280;61296;50.526;30.792;2023-05-29T13:04:15;99656.56;;;20.74;28.93
73105;BME280;61296;50.526;30.792;2023-05-29T13:19:34;99614.75;;;20.83;28.55
73105;BME280;61296;50.526;30.792;2023-05-29T13:34:54;99623.50;;;20.85;29.58
73105;BME280;61296;50.526;30.792;2023-05-29T13:50:15;99618.63;;;21.02;28.89
73105;BME280;61296;50.526;30.792;2023-05-29T14:05:35;99584.94;;;20.93;28.84
73105;BME280;61296;50.526;30.792;2023-05-29T14:20:54;99636.94;;;21.45;28.24
73105;BME280;61296;50.526;30.792;2023-05-29T14:36:14;99615.41;;;21.16;29.42
73105;BME280;61296;50.526;30.792;2023-05-29T14:51:33;99557.88;;;21.02;29.59
73105;BME280;61296;50.526;30.792;2023-05-29T15:06:56;99556.13;;;21.09;30.02
73105;BME280;61296;50.526;30.792;2023-05-29T15:22:15;99566.19;;;21.06;29.60
73105;BME280;61296;50.526;30.792;2023-05-29T15:37:35;99588.44;;;20.97;30.04
73105;BME280;61296;50.526;30.792;2023-05-29T15:52:54;99566.06;;;20.97;29.71
73105;BME280;61296;50.526;30.792;2023-05-29T16:08:14;99635.38;;;21.44;30.23
73105;BME280;61296;50.526;30.792;2023-05-29T16:23:33;99569.25;;;20.83;30.69
73105;BME280;61296;50.526;30.792;2023-05-29T16:38:53;99643.88;;;21.27;30.86
73105;BME280;61296;50.526;30.792;2023-05-29T16:54:12;99559.78;;;20.51;31.16
73105;BME280;61296;50.526;30.792;2023-05-29T17:09:32;99564.19;;;20.36;31.73
73105;BME280;61296;50.526;30.792;2023-05-29T17:24:51;99528.09;;;19.83;32.25
73105;BME280;61296;50.526;30.792;2023-05-29T17:40:11;99521.91;;;19.43;33.25
73105;BME280;61296;50.526;30.792;2023-05-29T17:55:33;99640.34;;;19.75;33.81
73105;BME280;61296;50.526;30.792;2023-05-29T18:10:57;99638.34;;;19.39;33.87
73105;BME280;61296;50.526;30.792;2023-05-29T18:26:24;99543.09;;;18.49;34.04
73105;BME280;61296;50.526;30.792;2023-05-29T18:41:45;99591.44;;;18.38;34.07
73105;BME280;61296;50.526;30.792;2023-05-29T18:57:05;99554.94;;;17.89;34.77
73105;BME280;61296;50.526;30.792;2023-05-29T19:12:29;99661.34;;;18.21;35.25
73105;BME280;61296;50.526;30.792;2023-05-29T19:27:48;99572.66;;;17.49;35.55
73105;BME280;61296;50.526;30.792;2023-05-29T19:43:10;99547.69;;;17.22;35.94
73105;BME280;61296;50.526;30.792;2023-05-29T19:58:32;99525.75;;;17.00;35.98
73105;BME280;61296;50.526;30.792;2023-05-29T20:13:51;99629.47;;;17.48;35.95
73105;BME280;61296;50.526;30.792;2023-05-29T20:29:11;99608.06;;;17.18;36.71
73105;BME280;61296;50.526;30.792;2023-05-29T20:44:30;99549.84;;;16.80;36.56
73105;BME280;61296;50.526;30.792;2023-05-29T20:59:50;99485.88;;;16.23;36.64
73105;BME280;61296;50.526;30.792;2023-05-29T21:15:12;99542.19;;;16.57;36.53
73105;BME280;61296;50.526;30.792;2023-05-29T21:30:32;99481.28;;;16.09;36.15
73105;BME280;61296;50.526;30.792;2023-05-29T21:45:52;99588.06;;;16.65;37.25
73105;BME280;61296;50.526;30.792;2023-05-29T22:01:14;99551.88;;;16.42;38.24
73105;BME280;61296;50.526;30.792;2023-05-29T22:16:34;99555.44;;;16.42;38.39
73105;BME280;61296;50.526;30.792;2023-05-29T22:31:53;99490.38;;;15.72;39.46
73105;BME280;61296;50.526;30.792;2023-05-29T22:47:12;99599.78;;;16.08;40.05
73105;BME280;61296;50.526;30.792;2023-05-29T23:02:32;99538.97;;;15.39;41.00
73105;BME280;61296;50.526;30.792;2023-05-29T23:17:51;99486.00;;;14.67;42.16
73105;BME280;61296;50.526;30.792;2023-05-29T23:33:10;99523.97;;;14.70;42.51
73105;BME280;61296;50.526;30.792;2023-05-29T23:48:31;99544.22;;;14.46;43.57
